createdAt,value
2022-09-17T00:01:33.255Z,10.30
2022-09-17T00:04:04.489Z,10.30
2022-09-17T00:06:36.482Z,10.20
2022-09-17T00:09:08.180Z,10.20
2022-09-17T00:11:40.084Z,10.20
2022-09-17T00:14:12.840Z,10.20
2022-09-17T00:16:45.417Z,10.30
2022-09-17T00:19:21.217Z,10.30
2022-09-17T00:21:50.179Z,10.30
2022-09-17T00:24:19.683Z,10.30
2022-09-17T00:26:48.767Z,10.20
2022-09-17T00:29:17.625Z,10.20
2022-09-17T00:31:45.648Z,10.10
2022-09-17T00:34:13.278Z,10.00
2022-09-17T00:36:41.415Z,9.90
2022-09-17T00:39:12.431Z,9.90
2022-09-17T00:41:40.360Z,9.90
2022-09-17T00:44:44.705Z,9.80
2022-09-17T00:47:36.805Z,9.70
2022-09-17T00:50:12.528Z,9.70
2022-09-17T00:52:54.333Z,9.80
2022-09-17T00:55:26.470Z,9.90
2022-09-17T00:57:59.274Z,10.00
2022-09-17T01:00:29.531Z,10.00
2022-09-17T01:02:58.654Z,10.10
2022-09-17T01:06:00.340Z,10.10
2022-09-17T01:09:10.317Z,10.10
2022-09-17T01:12:06.706Z,10.10
2022-09-17T01:14:52.586Z,10.10
2022-09-17T01:17:42.638Z,10.00
2022-09-17T01:20:28.611Z,10.00
2022-09-17T01:23:37.843Z,10.00
2022-09-17T01:26:59.591Z,10.00
2022-09-17T01:30:16.874Z,10.00
2022-09-17T01:33:39.508Z,10.00
2022-09-17T01:36:23.536Z,10.00
2022-09-17T01:39:24.763Z,10.10
2022-09-17T01:42:17.317Z,10.10
2022-09-17T01:45:10.213Z,10.00
2022-09-17T01:47:52.193Z,10.10
2022-09-17T01:50:31.455Z,10.10
2022-09-17T01:53:00.421Z,10.10
2022-09-17T01:55:36.870Z,10.10
2022-09-17T01:58:36.955Z,10.10
2022-09-17T02:01:10.089Z,10.20
2022-09-17T02:04:12.651Z,10.10
2022-09-17T02:06:51.075Z,10.20
2022-09-17T02:09:28.569Z,10.20
2022-09-17T02:12:01.623Z,10.10
2022-09-17T02:14:40.524Z,10.20
2022-09-17T02:17:44.447Z,10.20
2022-09-17T02:20:13.662Z,10.20
2022-09-17T02:23:36.954Z,10.10
2022-09-17T02:26:15.256Z,10.20
2022-09-17T02:28:58.837Z,10.10
2022-09-17T02:31:26.619Z,10.10
2022-09-17T02:34:01.621Z,10.10
2022-09-17T02:36:41.692Z,10.00
2022-09-17T02:39:12.836Z,10.00
2022-09-17T02:41:56.781Z,10.00
2022-09-17T02:45:09.436Z,9.90
2022-09-17T02:48:06.102Z,9.80
2022-09-17T02:50:38.731Z,9.80
2022-09-17T02:53:12.942Z,9.70
2022-09-17T02:56:34.166Z,9.70
2022-09-17T02:59:29.974Z,9.60
2022-09-17T03:02:30.766Z,9.60
2022-09-17T03:05:00.146Z,9.60
2022-09-17T03:07:29.318Z,9.60
2022-09-17T03:09:56.989Z,9.60
2022-09-17T03:12:24.905Z,9.50
2022-09-17T03:14:52.976Z,9.50
2022-09-17T03:17:20.543Z,9.40
2022-09-17T03:19:48.214Z,9.40
2022-09-17T03:22:15.947Z,9.40
2022-09-17T03:24:43.790Z,9.40
2022-09-17T03:27:11.328Z,9.40
2022-09-17T03:29:39.214Z,9.40
2022-09-17T03:32:07.164Z,9.50
2022-09-17T03:34:34.871Z,9.50
2022-09-17T03:37:02.906Z,9.50
2022-09-17T03:39:30.871Z,9.60
2022-09-17T03:41:58.570Z,9.60
2022-09-17T03:44:26.271Z,9.60
2022-09-17T03:46:54.003Z,9.60
2022-09-17T03:49:21.750Z,9.70
2022-09-17T03:52:01.650Z,9.70
2022-09-17T03:54:36.099Z,9.70
2022-09-17T03:57:04.072Z,9.60
2022-09-17T03:59:32.068Z,9.60
2022-09-17T04:01:59.786Z,9.50
2022-09-17T04:04:27.829Z,9.40
2022-09-17T04:06:55.937Z,9.40
2022-09-17T04:09:23.676Z,9.40
2022-09-17T04:11:51.673Z,9.30
2022-09-17T04:14:19.361Z,9.20
2022-09-17T04:16:47.519Z,9.10
2022-09-17T04:19:15.702Z,9.10
2022-09-17T04:21:44.031Z,9.10
2022-09-17T04:24:12.258Z,9.10
2022-09-17T04:26:40.154Z,9.10
2022-09-17T04:29:07.777Z,9.10
2022-09-17T04:31:35.990Z,9.10
2022-09-17T04:34:03.982Z,9.10
2022-09-17T04:36:36.257Z,9.10
2022-09-17T04:39:04.901Z,9.20
2022-09-17T04:41:33.079Z,9.20
2022-09-17T04:44:00.834Z,9.30
2022-09-17T04:46:28.660Z,9.30
2022-09-17T04:48:57.211Z,9.40
2022-09-17T04:51:25.321Z,9.40
2022-09-17T04:53:53.735Z,9.40
2022-09-17T04:56:22.161Z,9.50
2022-09-17T04:58:50.364Z,9.50
2022-09-17T05:01:26.305Z,9.70
2022-09-17T05:03:54.695Z,9.70
2022-09-17T05:06:22.433Z,10.20
2022-09-17T05:08:50.727Z,10.60
2022-09-17T05:11:18.678Z,11.10
2022-09-17T05:14:05.010Z,11.50
2022-09-17T05:16:33.193Z,11.90
2022-09-17T05:19:01.078Z,12.20
2022-09-17T05:21:28.776Z,12.40
2022-09-17T05:23:56.766Z,12.60
2022-09-17T05:26:24.368Z,12.80
2022-09-17T05:28:54.575Z,12.60
2022-09-17T05:31:22.576Z,12.20
2022-09-17T05:33:50.239Z,11.90
2022-09-17T05:36:18.033Z,12.50
2022-09-17T05:38:49.081Z,12.60
2022-09-17T05:41:17.624Z,12.20
2022-09-17T05:43:45.144Z,12.00
2022-09-17T05:46:13.196Z,11.90
2022-09-17T05:48:40.897Z,11.50
2022-09-17T05:51:08.469Z,11.40
2022-09-17T05:53:36.870Z,11.40
2022-09-17T05:56:04.786Z,11.20
2022-09-17T05:58:34.460Z,11.30
2022-09-17T06:01:02.538Z,11.60
2022-09-17T06:03:30.521Z,12.50
2022-09-17T06:06:00.715Z,13.50
2022-09-17T06:08:29.900Z,14.70
2022-09-17T06:11:03.568Z,15.90
2022-09-17T06:13:33.367Z,16.80
2022-09-17T06:16:03.741Z,17.90
2022-09-17T06:18:32.176Z,18.10
2022-09-17T06:21:03.833Z,18.00
2022-09-17T06:23:37.976Z,17.20
2022-09-17T06:26:06.782Z,16.40
2022-09-17T06:28:40.558Z,15.90
2022-09-17T06:31:13.521Z,15.80
2022-09-17T06:33:41.907Z,15.60
2022-09-17T06:36:14.652Z,15.30
2022-09-17T06:39:15.930Z,14.80
2022-09-17T06:42:36.506Z,14.30
2022-09-17T06:45:16.917Z,13.70
2022-09-17T06:47:47.315Z,13.60
2022-09-17T06:50:15.235Z,13.70
2022-09-17T06:52:55.517Z,14.10
2022-09-17T06:55:23.619Z,14.30
2022-09-17T06:57:51.265Z,14.50
2022-09-17T07:00:19.168Z,14.70
2022-09-17T07:03:03.813Z,15.10
2022-09-17T07:05:33.426Z,15.20
2022-09-17T07:08:03.507Z,15.30
2022-09-17T07:10:33.316Z,15.80
2022-09-17T07:13:01.448Z,15.70
2022-09-17T07:15:36.855Z,15.10
2022-09-17T07:18:13.704Z,14.80
2022-09-17T07:20:43.499Z,14.30
2022-09-17T07:23:11.995Z,13.80
2022-09-17T07:25:45.831Z,13.90
2022-09-17T07:28:15.289Z,14.40
2022-09-17T07:30:43.717Z,15.50
2022-09-17T07:33:14.580Z,15.80
2022-09-17T07:35:52.191Z,16.00
2022-09-17T07:38:20.142Z,15.90
2022-09-17T07:41:16.567Z,16.20
2022-09-17T07:43:45.195Z,16.70
2022-09-17T07:46:19.740Z,17.20
2022-09-17T07:48:49.852Z,17.50
2022-09-17T07:51:24.636Z,17.60
2022-09-17T07:53:58.804Z,17.60
2022-09-17T07:56:28.875Z,17.80
2022-09-17T07:58:57.381Z,17.70
2022-09-17T08:01:27.443Z,17.60
2022-09-17T08:03:55.567Z,17.60
2022-09-17T08:06:28.688Z,17.10
2022-09-17T08:08:59.965Z,17.20
2022-09-17T08:11:55.015Z,17.60
2022-09-17T08:14:19.388Z,17.70
2022-09-17T08:16:47.647Z,17.50
2022-09-17T08:19:15.320Z,17.20
2022-09-17T08:21:43.184Z,17.00
2022-09-17T08:24:10.763Z,17.10
2022-09-17T08:26:39.252Z,17.10
2022-09-17T08:29:10.487Z,17.60
2022-09-17T08:31:42.588Z,17.40
2022-09-17T08:34:16.356Z,17.50
2022-09-17T08:36:44.464Z,17.30
2022-09-17T08:39:13.153Z,17.20
2022-09-17T08:42:08.256Z,17.50
2022-09-17T08:45:07.227Z,19.90
2022-09-17T08:47:46.763Z,23.30
2022-09-17T08:50:32.985Z,24.30
2022-09-17T08:53:27.301Z,23.80
2022-09-17T08:56:22.637Z,22.60
2022-09-17T08:59:27.175Z,22.20
2022-09-17T09:02:47.601Z,24.90
2022-09-17T09:05:27.614Z,27.20
2022-09-17T09:08:03.173Z,27.80
2022-09-17T09:10:46.911Z,27.60
2022-09-17T09:13:21.544Z,25.60
2022-09-17T09:16:06.261Z,22.70
2022-09-17T09:18:40.545Z,22.40
2022-09-17T09:21:37.698Z,23.50
2022-09-17T09:24:25.642Z,23.70
2022-09-17T09:27:18.450Z,23.10
2022-09-17T09:30:16.241Z,22.20
2022-09-17T09:33:00.510Z,24.10
2022-09-17T09:35:36.540Z,22.40
2022-09-17T09:38:25.381Z,23.60
2022-09-17T09:41:16.908Z,24.60
2022-09-17T09:44:05.326Z,25.20
2022-09-17T09:47:35.521Z,23.80
2022-09-17T09:51:07.385Z,24.20
2022-09-17T09:54:23.672Z,22.00
2022-09-17T09:57:04.222Z,24.10
2022-09-17T09:59:32.503Z,23.90
2022-09-17T10:02:00.798Z,25.90
2022-09-17T10:04:32.559Z,24.10
2022-09-17T10:07:21.444Z,24.00
2022-09-17T10:09:49.531Z,25.60
2022-09-17T10:12:19.003Z,26.50
2022-09-17T10:14:48.868Z,26.00
2022-09-17T10:17:25.695Z,26.90
2022-09-17T10:20:07.285Z,25.70
2022-09-17T10:22:48.450Z,25.70
2022-09-17T10:25:34.303Z,27.30
2022-09-17T10:28:21.438Z,29.00
2022-09-17T10:31:10.515Z,29.90
2022-09-17T10:33:57.130Z,27.60
2022-09-17T10:36:48.025Z,25.40
2022-09-17T10:39:39.204Z,24.00
2022-09-17T10:42:21.210Z,26.30
2022-09-17T10:44:57.415Z,30.10
2022-09-17T10:47:31.391Z,32.30
2022-09-17T10:50:27.379Z,30.50
2022-09-17T10:53:06.032Z,27.40
2022-09-17T10:55:48.623Z,24.60
2022-09-17T10:58:57.541Z,23.10
2022-09-17T11:01:53.966Z,22.30
2022-09-17T11:04:37.184Z,24.40
2022-09-17T11:07:30.423Z,24.10
2022-09-17T11:10:09.119Z,22.40
2022-09-17T11:13:11.750Z,20.50
2022-09-17T11:16:50.180Z,19.00
2022-09-17T11:19:48.924Z,18.10
2022-09-17T11:22:24.833Z,17.70
2022-09-17T11:25:33.011Z,17.60
2022-09-17T11:28:40.962Z,17.50
2022-09-17T11:31:55.702Z,17.40
2022-09-17T11:35:09.199Z,17.80
2022-09-17T11:37:49.535Z,19.40
2022-09-17T11:40:48.989Z,24.00
2022-09-17T11:43:34.440Z,26.70
2022-09-17T11:46:24.518Z,28.70
2022-09-17T11:48:56.456Z,27.20
2022-09-17T11:51:38.920Z,24.20
2022-09-17T11:54:28.718Z,22.10
2022-09-17T11:57:33.825Z,20.50
2022-09-17T12:00:18.483Z,19.10
2022-09-17T12:03:02.563Z,18.30
2022-09-17T12:05:51.331Z,17.70
2022-09-17T12:09:00.330Z,17.20
2022-09-17T12:11:42.119Z,17.00
2022-09-17T12:14:28.008Z,16.80
2022-09-17T12:17:03.771Z,16.60
2022-09-17T12:19:44.964Z,16.70
2022-09-17T12:22:19.769Z,16.80
2022-09-17T12:24:52.287Z,18.30
2022-09-17T12:27:38.670Z,22.30
2022-09-17T12:30:38.862Z,23.50
2022-09-17T12:33:31.843Z,22.00
2022-09-17T12:36:27.869Z,20.70
2022-09-17T12:39:34.609Z,20.80
2022-09-17T12:43:07.545Z,21.90
2022-09-17T12:46:11.876Z,23.10
2022-09-17T12:49:03.206Z,23.30
2022-09-17T12:51:57.169Z,23.50
2022-09-17T12:55:29.124Z,23.70
2022-09-17T12:58:25.187Z,24.20
2022-09-17T13:01:18.402Z,25.30
2022-09-17T13:05:00.125Z,26.10
2022-09-17T13:07:56.582Z,26.90
2022-09-17T13:11:17.825Z,26.60
2022-09-17T13:14:02.910Z,26.10
2022-09-17T13:16:56.282Z,27.40
2022-09-17T13:20:20.527Z,28.60
2022-09-17T13:22:55.092Z,26.30
2022-09-17T13:25:26.417Z,25.70
2022-09-17T13:28:11.489Z,26.50
2022-09-17T13:31:01.353Z,29.00
2022-09-17T13:33:54.564Z,30.50
2022-09-17T13:36:50.314Z,31.40
2022-09-17T13:39:44.872Z,31.10
2022-09-17T13:42:57.047Z,29.50
2022-09-17T13:45:27.070Z,30.20
2022-09-17T13:48:10.520Z,30.70
2022-09-17T13:50:43.371Z,30.90
2022-09-17T13:53:27.689Z,30.50
2022-09-17T13:55:59.597Z,30.20
2022-09-17T13:58:35.565Z,29.00
2022-09-17T14:01:13.152Z,27.40
2022-09-17T14:03:48.608Z,27.30
2022-09-17T14:06:22.486Z,28.20
2022-09-17T14:08:52.095Z,28.30
2022-09-17T14:11:25.574Z,28.30
2022-09-17T14:14:04.558Z,29.00
2022-09-17T14:16:46.688Z,29.40
2022-09-17T14:19:51.578Z,29.50
2022-09-17T14:22:27.782Z,29.50
2022-09-17T14:24:57.583Z,29.10
2022-09-17T14:27:48.790Z,29.00
2022-09-17T14:30:33.340Z,28.90
2022-09-17T14:33:19.272Z,29.10
2022-09-17T14:36:09.852Z,29.00
2022-09-17T14:38:51.777Z,28.80
2022-09-17T14:41:42.628Z,28.10
2022-09-17T14:44:21.471Z,25.20
2022-09-17T14:47:04.282Z,22.30
2022-09-17T14:49:41.024Z,20.50
2022-09-17T14:52:33.052Z,19.30
2022-09-17T14:55:11.624Z,18.40
2022-09-17T14:57:40.836Z,17.70
2022-09-17T15:00:22.077Z,17.20
2022-09-17T15:02:57.787Z,17.00
2022-09-17T15:05:40.102Z,16.70
2022-09-17T15:08:16.424Z,16.50
2022-09-17T15:11:07.679Z,16.40
2022-09-17T15:13:43.168Z,16.30
2022-09-17T15:16:20.444Z,16.10
2022-09-17T15:18:54.033Z,15.90
2022-09-17T15:21:41.847Z,15.80
2022-09-17T15:24:34.897Z,15.70
2022-09-17T15:27:32.634Z,15.60
2022-09-17T15:30:21.260Z,15.70
2022-09-17T15:32:59.264Z,15.60
2022-09-17T15:35:31.500Z,15.50
2022-09-17T15:40:52.352Z,15.40
2022-09-17T15:43:34.716Z,15.30
2022-09-17T15:46:28.071Z,15.20
2022-09-17T15:49:02.443Z,15.30
2022-09-17T15:51:36.864Z,15.20
2022-09-17T15:54:11.070Z,15.30
2022-09-17T15:56:42.874Z,15.40
2022-09-17T15:59:23.234Z,15.40
2022-09-17T16:01:56.371Z,15.20
2022-09-17T16:04:35.432Z,14.90
2022-09-17T16:07:40.863Z,14.60
2022-09-17T16:10:11.458Z,14.40
2022-09-17T16:12:40.107Z,14.20
2022-09-17T16:15:09.270Z,14.00
2022-09-17T16:17:37.477Z,13.90
2022-09-17T16:20:17.975Z,13.80
2022-09-17T16:22:48.386Z,13.70
2022-09-17T16:25:19.204Z,13.60
2022-09-17T16:27:56.862Z,13.40
2022-09-17T16:30:25.808Z,13.40
2022-09-17T16:32:54.819Z,13.40
2022-09-17T16:35:26.375Z,13.30
2022-09-17T16:37:57.098Z,13.30
2022-09-17T16:40:29.516Z,13.20
2022-09-17T16:43:02.817Z,13.00
2022-09-17T16:45:32.257Z,13.00
2022-09-17T16:48:01.136Z,12.90
2022-09-17T16:50:29.791Z,12.80
2022-09-17T16:54:18.858Z,12.70
2022-09-17T16:56:48.526Z,12.60
2022-09-17T16:59:16.988Z,12.40
2022-09-17T17:01:44.928Z,12.40
2022-09-17T17:04:13.741Z,12.30
2022-09-17T17:06:42.330Z,12.30
2022-09-17T17:09:12.868Z,12.20
2022-09-17T17:11:41.439Z,12.00
2022-09-17T17:14:14.555Z,11.90
2022-09-17T17:16:44.898Z,11.80
2022-09-17T17:19:12.991Z,11.80
2022-09-17T17:21:44.026Z,11.80
2022-09-17T17:24:14.759Z,11.80
2022-09-17T17:26:45.416Z,11.70
2022-09-17T17:29:14.766Z,11.60
2022-09-17T17:31:46.311Z,11.60
2022-09-17T17:34:23.380Z,11.60
2022-09-17T17:36:52.258Z,11.60
2022-09-17T17:39:20.856Z,11.50
2022-09-17T17:41:51.823Z,11.50
2022-09-17T17:44:20.472Z,11.50
2022-09-17T17:47:11.944Z,11.50
2022-09-17T17:49:48.465Z,11.40
2022-09-17T17:52:29.030Z,11.40
2022-09-17T17:54:57.507Z,11.30
2022-09-17T17:57:43.304Z,11.30
2022-09-17T18:00:36.442Z,11.10
2022-09-17T18:03:45.707Z,11.10
2022-09-17T18:06:55.301Z,11.00
2022-09-17T18:09:29.357Z,11.00
2022-09-17T18:11:59.020Z,11.00
2022-09-17T18:14:31.871Z,10.90
2022-09-17T18:17:14.312Z,10.90
2022-09-17T18:19:44.414Z,10.90
2022-09-17T18:22:40.099Z,10.90
2022-09-17T18:25:15.240Z,10.90
2022-09-17T18:28:14.535Z,10.80
2022-09-17T18:30:45.180Z,10.80
2022-09-17T18:33:28.593Z,10.80
2022-09-17T18:36:09.326Z,10.80
2022-09-17T18:38:43.818Z,10.70
2022-09-17T18:41:13.830Z,10.70
2022-09-17T18:43:42.706Z,10.70
2022-09-17T18:46:14.227Z,10.70
2022-09-17T18:49:01.495Z,10.60
2022-09-17T18:51:32.286Z,10.60
2022-09-17T18:54:10.867Z,10.60
2022-09-17T18:57:21.655Z,10.60
2022-09-17T19:00:07.578Z,10.60
2022-09-17T19:02:45.019Z,10.60
2022-09-17T19:05:24.515Z,10.60
2022-09-17T19:07:57.979Z,10.60
2022-09-17T19:10:28.425Z,10.50
2022-09-17T19:12:59.861Z,10.60
2022-09-17T19:15:30.932Z,10.50
2022-09-17T19:18:06.744Z,10.50
2022-09-17T19:20:40.183Z,10.50
2022-09-17T19:23:26.451Z,10.40
2022-09-17T19:26:28.148Z,10.40
2022-09-17T19:29:12.379Z,10.40
2022-09-17T19:32:14.267Z,10.40
2022-09-17T19:35:10.111Z,10.40
2022-09-17T19:37:47.337Z,10.40
2022-09-17T19:40:22.587Z,10.30
2022-09-17T19:42:59.499Z,10.40
2022-09-17T19:45:42.052Z,10.30
2022-09-17T19:48:37.642Z,10.40
2022-09-17T19:51:14.172Z,10.40
2022-09-17T19:53:49.043Z,10.30
2022-09-17T19:56:26.092Z,10.40
2022-09-17T19:58:55.769Z,10.40
2022-09-17T20:01:40.008Z,10.50
2022-09-17T20:04:11.330Z,10.50
2022-09-17T20:06:41.506Z,10.40
2022-09-17T20:09:20.560Z,10.50
2022-09-17T20:12:00.885Z,10.40
2022-09-17T20:14:46.254Z,10.40
2022-09-17T20:17:46.437Z,10.40
2022-09-17T20:20:22.001Z,10.30
2022-09-17T20:22:54.124Z,10.30
2022-09-17T20:25:26.220Z,10.30
2022-09-17T20:27:56.547Z,10.30
2022-09-17T20:30:27.810Z,10.30
2022-09-17T20:33:15.406Z,10.30
2022-09-17T20:35:45.716Z,10.30
2022-09-17T20:41:15.113Z,10.20
2022-09-17T20:43:55.240Z,10.20
2022-09-17T20:46:32.011Z,10.20
2022-09-17T20:49:10.927Z,10.20
2022-09-17T20:51:51.493Z,10.10
2022-09-17T20:54:21.007Z,10.00
2022-09-17T20:56:53.152Z,10.10
2022-09-17T20:59:29.954Z,10.10
2022-09-17T21:01:58.261Z,10.10
2022-09-17T21:04:34.178Z,10.10
2022-09-17T21:07:06.225Z,10.10
2022-09-17T21:09:44.478Z,10.10
2022-09-17T21:12:16.084Z,10.00
2022-09-17T21:14:44.440Z,10.00
2022-09-17T21:17:12.979Z,9.90
2022-09-17T21:19:41.379Z,10.00
2022-09-17T21:22:13.100Z,10.00
2022-09-17T21:24:41.362Z,10.00
2022-09-17T21:27:10.324Z,10.00
2022-09-17T21:29:39.348Z,10.10
2022-09-17T21:32:07.266Z,10.10
2022-09-17T21:34:35.639Z,10.10
2022-09-17T21:37:06.612Z,10.00
2022-09-17T21:39:38.216Z,10.00
2022-09-17T21:42:08.742Z,10.00
2022-09-17T21:47:33.349Z,10.00
2022-09-17T21:50:01.082Z,10.00
2022-09-17T21:52:33.514Z,9.90
2022-09-17T21:57:59.976Z,10.00
2022-09-17T22:00:29.539Z,9.90
2022-09-17T22:02:59.463Z,9.90
2022-09-17T22:05:27.357Z,10.00
2022-09-17T22:07:55.385Z,10.00
2022-09-17T22:10:23.498Z,9.90
2022-09-17T22:12:51.566Z,9.90
2022-09-17T22:15:19.516Z,9.90
2022-09-17T22:17:47.311Z,9.90
2022-09-17T22:20:16.475Z,10.00
2022-09-17T22:22:44.662Z,9.90
2022-09-17T22:25:12.514Z,9.90
2022-09-17T22:27:40.486Z,9.90
2022-09-17T22:30:11.040Z,9.90
2022-09-17T22:32:38.703Z,9.80
2022-09-17T22:35:08.118Z,9.80
2022-09-17T22:37:37.476Z,9.80
2022-09-17T22:40:17.089Z,9.80
2022-09-17T22:42:51.786Z,9.70
2022-09-17T22:45:21.386Z,9.80
2022-09-17T22:47:49.349Z,9.80
2022-09-17T22:50:17.974Z,9.80
2022-09-17T22:52:53.239Z,9.90
2022-09-17T22:55:22.963Z,9.90
2022-09-17T22:57:51.975Z,9.90
2022-09-17T23:00:28.151Z,10.00
2022-09-17T23:02:55.882Z,10.00
2022-09-17T23:05:23.819Z,10.00
2022-09-17T23:07:51.769Z,10.10
2022-09-17T23:10:21.670Z,10.20
2022-09-17T23:12:55.446Z,10.20
2022-09-17T23:15:27.400Z,10.30
2022-09-17T23:17:55.457Z,10.30
2022-09-17T23:20:26.392Z,10.40
2022-09-17T23:22:55.007Z,10.40
2022-09-17T23:25:54.306Z,10.50
2022-09-17T23:28:25.542Z,10.50
2022-09-17T23:30:58.246Z,10.60
2022-09-17T23:33:52.943Z,10.60
2022-09-17T23:36:47.004Z,10.70
2022-09-17T23:39:25.735Z,10.60
2022-09-17T23:42:11.305Z,10.70
2022-09-17T23:45:04.887Z,10.60
2022-09-17T23:47:32.971Z,10.70
2022-09-17T23:50:00.979Z,10.70
2022-09-17T23:52:28.998Z,10.70
2022-09-17T23:54:58.956Z,10.60
2022-09-17T23:57:29.441Z,10.40
2022-09-17T23:59:57.107Z,10.40
